Time;durP1;ratioP1;P1;durP2;ratioP2;P2;SDS_P1;SDS_P2;PMS_P1;PMS_P2;Temp;Humidity;BMP_temperature;BMP_pressure;BME280_temperature;BME280_humidity;BME280_pressure;Samples;Min_cycle;Max_cycle;Signal;HPM_P1;HPM_P2
2024/01/30 00:00:35;;;;;;;10.37;4.67;;;;;;;1.32;63.98;99001.25;5071113;28;20195;-62
2024/01/30 00:03:04;;;;;;;5.70;3.93;;;;;;;1.28;63.86;99002.88;5088083;28;20192;-61
2024/01/30 00:05:31;;;;;;;6.40;3.80;;;;;;;1.30;64.05;99008.03;5069989;28;20254;-61
2024/01/30 00:07:58;;;;;;;6.50;3.90;;;;;;;1.44;64.38;98996.44;5089194;28;20211;-60
2024/01/30 00:10:26;;;;;;;6.27;4.07;;;;;;;1.46;62.62;99007.53;5087624;28;20212;-61
2024/01/30 00:12:53;;;;;;;5.70;3.47;;;;;;;1.32;62.81;99007.22;5071075;28;20578;-60
2024/01/30 00:15:20;;;;;;;6.27;4.03;;;;;;;1.32;62.77;99019.13;5069493;28;20749;-59
2024/01/30 00:17:47;;;;;;;7.17;3.70;;;;;;;1.20;62.88;99022.25;5089005;28;20884;-61
2024/01/30 00:20:14;;;;;;;4.70;3.20;;;;;;;1.22;63.29;99019.72;5087830;28;20197;-60
2024/01/30 00:22:41;;;;;;;4.17;2.63;;;;;;;1.11;62.58;99031.41;5088423;28;20188;-61
2024/01/30 00:25:08;;;;;;;4.07;2.57;;;;;;;1.21;62.95;99026.53;5088552;28;20231;-61
2024/01/30 00:27:36;;;;;;;6.17;2.87;;;;;;;1.32;61.99;99035.28;5068949;28;20227;-59
2024/01/30 00:30:03;;;;;;;3.97;2.97;;;;;;;1.46;61.43;99030.50;5088853;28;20665;-60
2024/01/30 00:32:31;;;;;;;5.43;3.40;;;;;;;1.27;61.72;99029.22;5086980;28;20193;-58
2024/01/30 00:34:58;;;;;;;4.70;3.00;;;;;;;1.27;62.23;99024.13;5088713;28;20208;-58
2024/01/30 00:37:26;;;;;;;4.73;2.80;;;;;;;1.40;62.99;99028.66;5087323;28;20204;-59
2024/01/30 00:39:53;;;;;;;5.00;3.57;;;;;;;1.35;61.55;99017.50;5069645;28;20235;-62
2024/01/30 00:42:21;;;;;;;4.33;3.20;;;;;;;1.43;62.28;99036.38;5088345;28;20226;-59
2024/01/30 00:44:48;;;;;;;4.33;2.67;;;;;;;1.28;62.81;99051.34;5069264;28;20192;-60
2024/01/30 00:47:15;;;;;;;5.40;3.40;;;;;;;1.36;62.11;99049.00;5088099;28;20247;-59
2024/01/30 00:49:42;;;;;;;5.97;3.40;;;;;;;1.42;62.88;99047.41;5086545;28;20218;-59
2024/01/30 00:52:09;;;;;;;4.70;3.00;;;;;;;1.58;62.46;99046.06;5088176;28;20188;-60
2024/01/30 00:54:37;;;;;;;6.10;3.50;;;;;;;1.69;61.95;99053.97;5086635;28;20197;-59
2024/01/30 00:57:04;;;;;;;4.93;3.47;;;;;;;1.81;62.29;99059.31;5087854;28;20699;-59
2024/01/30 00:59:31;;;;;;;3.37;2.53;;;;;;;1.30;62.37;99053.97;5087726;28;20642;-59
2024/01/30 01:01:58;;;;;;;4.43;2.70;;;;;;;1.27;63.92;99054.75;5086852;28;20192;-59
2024/01/30 01:04:26;;;;;;;5.77;3.20;;;;;;;1.28;64.07;99045.38;5088328;28;20212;-60
2024/01/30 01:06:54;;;;;;;6.93;3.90;;;;;;;1.35;63.36;99040.47;5086591;28;20632;-60
2024/01/30 01:09:21;;;;;;;4.47;3.03;;;;;;;1.38;62.35;99040.53;5070047;28;20192;-59
2024/01/30 01:11:48;;;;;;;4.23;2.93;;;;;;;1.26;62.16;99032.59;5086496;28;20227;-59
2024/01/30 01:14:16;;;;;;;4.50;3.03;;;;;;;1.21;62.75;99029.09;5087692;28;20196;-57
2024/01/30 01:16:43;;;;;;;4.13;2.77;;;;;;;1.34;63.35;99036.19;5087095;28;20243;-60
2024/01/30 01:19:10;;;;;;;3.60;2.57;;;;;;;1.37;63.19;99025.19;5086567;28;20228;-60
2024/01/30 01:21:37;;;;;;;3.97;3.10;;;;;;;1.54;62.51;99036.63;5087805;28;20222;-60
2024/01/30 01:24:05;;;;;;;4.10;2.70;;;;;;;1.51;62.82;99034.00;5067886;28;20247;-59
2024/01/30 01:26:32;;;;;;;3.73;2.90;;;;;;;1.32;63.31;99009.75;5087486;28;20228;-60
2024/01/30 01:28:59;;;;;;;4.77;3.20;;;;;;;1.57;63.16;99029.88;5085896;28;20725;-59
2024/01/30 01:31:29;;;;;;;4.53;3.50;;;;;;;1.57;63.79;99034.13;5087532;28;20209;-59
2024/01/30 01:33:57;;;;;;;7.53;4.30;;;;;;;1.61;63.20;99034.22;5086757;28;20193;-58
2024/01/30 01:36:24;;;;;;;4.67;3.73;;;;;;;1.27;63.91;99003.72;5085902;28;20184;-58
2024/01/30 01:38:51;;;;;;;5.37;3.63;;;;;;;1.55;64.49;99030.69;5087494;28;20200;-58
2024/01/30 01:41:18;;;;;;;5.10;3.17;;;;;;;1.72;64.85;99020.81;5067511;28;20679;-59
2024/01/30 01:43:45;;;;;;;6.17;3.27;;;;;;;1.72;65.20;99018.25;5087675;28;20207;-58
2024/01/30 01:46:12;;;;;;;4.30;3.13;;;;;;;1.72;64.08;99020.81;5085642;28;20203;-58
2024/01/30 01:48:40;;;;;;;5.20;3.83;;;;;;;1.79;64.55;99026.09;5086996;28;20723;-58
2024/01/30 01:51:07;;;;;;;6.83;4.03;;;;;;;1.76;63.58;99013.25;5086381;28;20236;-59
2024/01/30 01:53:35;;;;;;;7.23;4.20;;;;;;;1.62;64.29;99005.34;5086474;28;20196;-60
2024/01/30 01:56:03;;;;;;;7.03;4.60;;;;;;;1.63;64.90;99003.63;5087053;28;20196;-57
2024/01/30 01:58:30;;;;;;;4.83;3.40;;;;;;;1.50;65.37;98994.88;5085514;28;20579;-60
2024/01/30 02:00:59;;;;;;;5.57;3.90;;;;;;;1.52;65.23;98992.34;5087161;28;20580;-61
2024/01/30 02:03:26;;;;;;;6.93;4.53;;;;;;;1.67;64.60;99011.38;5085084;28;20293;-59
2024/01/30 02:05:54;;;;;;;6.50;3.97;;;;;;;1.54;64.99;98999.22;5086929;28;20196;-58
2024/01/30 02:08:21;;;;;;;7.77;4.10;;;;;;;1.50;65.09;98989.75;5085904;28;20784;-58
2024/01/30 02:10:48;;;;;;;6.00;3.97;;;;;;;1.62;65.32;99000.22;5086085;28;20197;-60
2024/01/30 02:13:15;;;;;;;6.83;3.93;;;;;;;1.81;64.31;99018.47;5086693;28;20196;-59
2024/01/30 02:15:43;;;;;;;5.43;3.77;;;;;;;1.69;65.56;99020.78;5085234;28;20207;-59
2024/01/30 02:18:10;;;;;;;5.70;3.83;;;;;;;1.76;65.31;99009.84;5086984;28;20611;-59
2024/01/30 02:21:01;;;;;;;7.60;3.87;;;;;;;1.83;64.35;99004.91;5069904;28;20304;-59
2024/01/30 02:23:30;;;;;;;6.30;3.80;;;;;;;1.80;64.88;99012.50;5086185;28;20318;-58
2024/01/30 02:25:57;;;;;;;9.37;4.57;;;;;;;1.92;65.03;99020.41;5086346;28;20625;-59
2024/01/30 02:28:24;;;;;;;5.57;4.10;;;;;;;1.79;65.37;99015.03;5085590;28;20283;-59
2024/01/30 02:30:51;;;;;;;5.83;3.97;;;;;;;1.76;65.91;99012.38;5068586;28;20265;-58
2024/01/30 02:33:19;;;;;;;7.70;4.53;;;;;;;1.73;64.23;99009.78;5084928;28;20210;-59
2024/01/30 02:35:46;;;;;;;3.83;2.73;;;;;;;1.59;62.57;99006.94;5086552;28;20189;-60
2024/01/30 02:38:13;;;;;;;4.93;2.87;;;;;;;1.52;62.95;98993.22;5085593;28;20276;-61
2024/01/30 02:40:40;;;;;;;4.00;3.20;;;;;;;1.62;63.62;99004.47;5086597;28;20197;-60
2024/01/30 02:43:07;;;;;;;4.47;2.80;;;;;;;1.64;63.15;99006.22;5085648;28;20208;-60
2024/01/30 02:45:35;;;;;;;3.17;2.63;;;;;;;1.71;64.61;99002.06;5085571;28;20199;-59
2024/01/30 02:48:02;;;;;;;7.10;3.93;;;;;;;1.80;64.81;99001.41;5087887;28;20588;-62
2024/01/30 02:50:29;;;;;;;5.40;3.50;;;;;;;1.84;64.46;99009.16;5088668;28;20200;-58
2024/01/30 02:52:56;;;;;;;6.53;4.47;;;;;;;1.87;64.74;99000.72;5090469;28;20201;-59
2024/01/30 02:55:23;;;;;;;7.57;4.27;;;;;;;1.95;65.00;99004.28;5089128;28;20668;-58
2024/01/30 02:57:50;;;;;;;6.53;4.00;;;;;;;1.89;64.87;98996.50;5072320;28;20635;-59
2024/01/30 03:00:19;;;;;;;5.43;3.97;;;;;;;1.96;63.98;98993.22;5090033;28;20915;-58
2024/01/30 03:02:46;;;;;;;5.27;3.67;;;;;;;1.87;63.34;98985.38;5089428;28;20216;-60
2024/01/30 03:05:13;;;;;;;4.57;3.27;;;;;;;1.82;63.52;98974.19;5090201;28;20254;-60
2024/01/30 03:07:40;;;;;;;10.63;3.60;;;;;;;1.37;62.96;98900.13;5088435;28;20648;-61
2024/01/30 03:10:08;;;;;;;5.10;3.53;;;;;;;1.83;63.86;98986.16;5090062;28;20189;-60
2024/01/30 03:12:35;;;;;;;4.27;3.30;;;;;;;1.81;63.56;98977.59;5088398;28;20205;-59
2024/01/30 03:15:02;;;;;;;5.27;3.20;;;;;;;1.80;63.39;98974.19;5090266;28;20192;-60
2024/01/30 03:17:31;;;;;;;5.13;3.07;;;;;;;1.71;63.19;98976.53;5089180;28;20236;-60
2024/01/30 03:19:58;;;;;;;4.80;3.17;;;;;;;1.69;63.79;98972.25;5089152;28;20261;-60
2024/01/30 03:22:26;;;;;;;6.63;3.90;;;;;;;1.70;64.14;98962.06;5090437;28;20204;-59
2024/01/30 03:24:53;;;;;;;6.07;3.63;;;;;;;1.73;64.46;98977.47;5088167;28;20271;-60
2024/01/30 03:27:20;;;;;;;6.53;3.97;;;;;;;1.71;64.65;98970.59;5089889;28;20200;-60
2024/01/30 03:29:47;;;;;;;5.70;3.63;;;;;;;1.71;64.61;98975.69;5088404;28;20204;-59
2024/01/30 03:32:14;;;;;;;6.70;3.67;;;;;;;1.67;64.91;98968.81;5089630;28;20251;-61
2024/01/30 03:34:41;;;;;;;4.93;3.33;;;;;;;1.68;64.31;98971.38;5088795;28;20196;-58
2024/01/30 03:37:08;;;;;;;5.13;3.50;;;;;;;1.67;64.97;98972.19;5089292;28;20201;-60
2024/01/30 03:39:36;;;;;;;4.47;3.47;;;;;;;1.71;64.48;98963.78;5089696;28;20200;-59
2024/01/30 03:42:03;;;;;;;3.57;2.80;;;;;;;1.30;62.59;98957.00;5087865;28;20569;-61
2024/01/30 03:44:30;;;;;;;5.00;3.20;;;;;;;1.53;62.87;98971.94;5089763;28;20204;-60
2024/01/30 03:46:57;;;;;;;5.93;3.43;;;;;;;1.49;64.31;98962.50;5087711;28;20208;-61
2024/01/30 03:49:24;;;;;;;5.87;4.03;;;;;;;1.55;64.89;98967.72;5089475;28;20227;-59
2024/01/30 03:51:51;;;;;;;5.30;3.80;;;;;;;1.58;64.36;98965.25;5088114;28;20192;-61
2024/01/30 03:54:18;;;;;;;6.10;3.97;;;;;;;1.60;65.77;98970.38;5088874;28;20647;-62
2024/01/30 03:56:46;;;;;;;6.17;4.20;;;;;;;1.82;64.65;98971.66;5089101;28;20246;-61
2024/01/30 03:59:13;;;;;;;6.57;4.27;;;;;;;1.65;64.89;98974.72;5087322;28;20233;-60
2024/01/30 04:01:40;;;;;;;6.43;4.53;;;;;;;1.65;64.96;98967.06;5089046;28;20204;-62
2024/01/30 04:04:08;;;;;;;5.50;4.03;;;;;;;1.55;65.02;98967.72;5088024;28;20184;-60
2024/01/30 04:06:35;;;;;;;5.10;3.77;;;;;;;1.57;64.75;98973.72;5089287;28;20192;-62
2024/01/30 04:09:03;;;;;;;6.00;3.67;;;;;;;1.52;65.46;98961.69;5087679;28;20300;-60
2024/01/30 04:11:30;;;;;;;7.17;4.40;;;;;;;1.46;66.34;98970.06;5088791;28;20208;-59
2024/01/30 04:13:57;;;;;;;7.07;4.40;;;;;;;1.50;66.38;98966.78;5088499;28;20231;-59
2024/01/30 04:16:24;;;;;;;5.53;4.07;;;;;;;1.44;65.60;98970.91;5086047;28;20201;-60
2024/01/30 04:18:52;;;;;;;7.70;4.80;;;;;;;1.48;67.27;98965.03;5089129;28;20603;-62
2024/01/30 04:21:21;;;;;;;9.63;5.87;;;;;;;1.45;67.44;98953.06;5087238;28;20368;-61
2024/01/30 04:23:48;;;;;;;8.97;5.57;;;;;;;1.47;69.16;98953.06;5088554;28;20236;-61
2024/01/30 04:26:15;;;;;;;9.30;5.93;;;;;;;1.57;67.81;98989.03;5087387;28;20196;-61
2024/01/30 04:28:44;;;;;;;8.37;5.63;;;;;;;1.57;67.82;98983.94;5088418;28;20607;-60
2024/01/30 04:31:51;;;;;;;8.27;5.43;;;;;;;1.63;68.72;98978.09;5087630;28;20203;-62
2024/01/30 04:35:12;;;;;;;10.07;5.80;;;;;;;1.59;68.77;98978.84;5085844;28;20184;-61
2024/01/30 04:38:33;;;;;;;8.90;6.10;;;;;;;1.64;67.75;98984.94;5086551;28;20283;-61
2024/01/30 04:41:53;;;;;;;11.10;6.07;;;;;;;1.50;68.63;98971.03;5085639;28;20196;-61
2024/01/30 04:45:14;;;;;;;8.33;5.57;;;;;;;1.40;69.42;98989.53;5085224;28;20193;-61
2024/01/30 04:48:35;;;;;;;11.17;5.97;;;;;;;1.11;70.34;98983.78;5083688;28;20670;-61
2024/01/30 04:51:56;;;;;;;8.23;5.50;;;;;;;1.30;70.38;98991.00;5083933;28;20185;-61
2024/01/30 04:55:17;;;;;;;9.87;5.73;;;;;;;1.26;69.95;98981.56;5085549;28;20664;-61
2024/01/30 04:58:37;;;;;;;10.87;5.87;;;;;;;1.28;70.30;98992.66;5086527;28;20279;-62
2024/01/30 05:01:58;;;;;;;10.67;6.17;;;;;;;1.42;69.55;98995.53;5086095;28;20207;-60
2024/01/30 05:05:19;;;;;;;10.57;6.10;;;;;;;1.44;70.30;99002.38;5085274;28;20188;-62
2024/01/30 05:08:40;;;;;;;8.43;5.13;;;;;;;1.41;71.31;98997.22;5085834;28;20247;-61
2024/01/30 05:12:00;;;;;;;9.63;5.20;;;;;;;1.39;69.79;98982.69;5065916;28;20758;-61
2024/01/30 05:15:21;;;;;;;9.13;5.73;;;;;;;1.54;70.94;98991.53;5084653;28;20575;-61
2024/01/30 05:18:42;;;;;;;7.90;5.83;;;;;;;1.67;69.10;98999.47;5084909;28;20567;-59
2024/01/30 05:22:02;;;;;;;11.80;6.63;;;;;;;1.70;69.97;99000.38;5085040;28;20211;-61
2024/01/30 05:25:24;;;;;;;13.17;6.90;;;;;;;1.57;71.24;99004.34;5086148;28;20263;-59
2024/01/30 05:28:45;;;;;;;12.23;6.60;;;;;;;1.52;71.33;98997.44;5086002;28;20223;-59
2024/01/30 05:32:06;;;;;;;9.70;6.23;;;;;;;1.42;70.95;99009.13;5085304;28;20227;-60
2024/01/30 05:35:26;;;;;;;16.83;7.27;;;;;;;1.28;72.99;99002.00;5084989;28;20594;-60
2024/01/30 05:38:47;;;;;;;10.30;6.90;;;;;;;1.21;73.22;99013.78;5085264;28;20192;-61
2024/01/30 05:42:08;;;;;;;10.73;6.57;;;;;;;1.35;71.86;99017.50;5086011;28;21058;-59
2024/01/30 05:45:30;;;;;;;8.87;6.00;;;;;;;1.09;72.37;99010.09;5069488;28;20203;-58
2024/01/30 05:48:51;;;;;;;14.20;10.10;;;;;;;1.28;72.48;99009.66;5065857;28;20315;-59
2024/01/30 05:52:12;;;;;;;14.07;8.07;;;;;;;1.30;73.27;99013.97;5084247;28;20191;-59
2024/01/30 05:55:32;;;;;;;14.97;7.50;;;;;;;1.33;71.92;99023.38;5085156;28;20582;-59
2024/01/30 05:58:53;;;;;;;13.40;7.70;;;;;;;1.36;72.73;99018.38;5065243;28;20189;-62
2024/01/30 06:02:14;;;;;;;13.80;7.50;;;;;;;1.36;72.02;99024.31;5064222;28;20181;-61
2024/01/30 06:05:35;;;;;;;10.33;6.13;;;;;;;1.35;71.82;99052.34;5063861;28;20211;-59
2024/01/30 06:08:56;;;;;;;9.10;5.53;;;;;;;1.33;71.04;99042.13;5065279;28;20707;-59
2024/01/30 06:12:21;;;;;;;19.07;6.43;;;;;;;1.02;71.27;98983.56;5066491;28;20672;-58
2024/01/30 06:15:42;;;;;;;10.87;6.90;;;;;;;1.41;71.96;99038.06;5064438;28;20787;-59
2024/01/30 06:19:03;;;;;;;11.00;6.03;;;;;;;1.28;69.99;99051.34;5063451;28;20185;-60
2024/01/30 06:22:24;;;;;;;10.70;6.60;;;;;;;1.13;71.15;99045.06;5064695;28;20267;-59
2024/01/30 06:25:45;;;;;;;15.30;7.83;;;;;;;1.17;72.47;99047.72;5065258;28;20229;-59
2024/01/30 06:29:05;;;;;;;13.27;6.50;;;;;;;1.20;71.58;99065.63;5064996;28;20213;-60
2024/01/30 06:32:28;;;;;;;13.37;6.73;;;;;;;1.35;70.43;99040.47;5063602;28;20193;-60
2024/01/30 06:35:49;;;;;;;12.83;7.20;;;;;;;1.43;70.85;99045.72;5063688;28;20201;-61
2024/01/30 06:39:09;;;;;;;11.17;6.37;;;;;;;1.44;70.93;99042.38;5065172;28;20189;-59
2024/01/30 06:42:30;;;;;;;11.93;6.70;;;;;;;1.51;70.40;99060.38;5065115;28;20212;-59
2024/01/30 06:45:11;;;;;;;14.17;7.30;;;;;;;1.67;70.14;99053.06;5063764;28;20199;-60
2024/01/30 06:47:38;;;;;;;11.40;6.63;;;;;;;1.59;69.29;99058.00;5065323;28;20672;-59
2024/01/30 06:50:06;;;;;;;10.33;6.30;;;;;;;1.46;69.57;99054.31;5065331;28;20197;-59
2024/01/30 06:52:33;;;;;;;10.43;6.70;;;;;;;1.57;68.96;99050.31;5064714;28;20235;-60
2024/01/30 06:55:01;;;;;;;9.47;5.63;;;;;;;1.62;68.30;99056.41;5066237;28;20216;-62
2024/01/30 06:57:30;;;;;;;8.80;5.97;;;;;;;1.48;68.74;99060.31;5064086;28;20221;-62
2024/01/30 06:59:57;;;;;;;8.33;5.90;;;;;;;1.53;68.41;99043.41;5065678;28;20225;-59
2024/01/30 07:02:25;;;;;;;11.73;6.20;;;;;;;1.68;68.39;99063.31;5064293;28;20303;-58
2024/01/30 07:04:52;;;;;;;11.43;6.80;;;;;;;1.70;68.95;99040.34;5065207;28;20193;-59
2024/01/30 07:07:19;;;;;;;14.83;6.57;;;;;;;1.85;69.13;99073.88;5065468;28;20249;-60
2024/01/30 07:09:49;;;;;;;12.67;6.73;;;;;;;1.80;68.87;99063.56;5064709;28;20225;-63
2024/01/30 07:12:17;;;;;;;14.07;7.23;;;;;;;1.81;68.16;99056.78;5065797;28;20233;-64
2024/01/30 07:14:44;;;;;;;17.37;7.90;;;;;;;1.85;69.03;99061.13;5064065;28;20740;-63
2024/01/30 07:17:11;;;;;;;12.20;8.00;;;;;;;1.89;68.06;99065.47;5065814;28;20253;-63
2024/01/30 07:19:38;;;;;;;9.63;6.27;;;;;;;1.85;67.97;99067.09;5064095;28;20250;-63
2024/01/30 07:22:05;;;;;;;11.33;7.33;;;;;;;1.73;69.06;99059.19;5065617;28;20185;-62
2024/01/30 07:24:32;;;;;;;12.67;7.33;;;;;;;1.71;67.83;99058.25;5065060;28;20239;-61
2024/01/30 07:26:59;;;;;;;7.60;5.70;;;;;;;1.81;67.68;99061.88;5064390;28;20258;-64
2024/01/30 07:29:26;;;;;;;7.70;5.40;;;;;;;1.52;67.69;99054.47;5047641;28;20269;-63
2024/01/30 07:31:53;;;;;;;6.93;4.23;;;;;;;1.56;68.28;99069.03;5064027;28;20668;-61
2024/01/30 07:34:21;;;;;;;11.30;6.60;;;;;;;1.67;68.44;99060.75;5067361;28;20297;-61
2024/01/30 07:36:48;;;;;;;8.80;5.60;;;;;;;1.57;67.37;99037.53;5067371;28;20251;-62
2024/01/30 07:39:15;;;;;;;9.17;5.57;;;;;;;1.76;66.47;99063.47;5069107;28;20193;-61
2024/01/30 07:41:42;;;;;;;11.80;6.50;;;;;;;1.82;67.50;99063.59;5068338;28;20209;-62
2024/01/30 07:44:09;;;;;;;14.80;7.83;;;;;;;1.85;67.48;99059.44;5049927;28;20197;-60
2024/01/30 07:46:37;;;;;;;10.10;6.60;;;;;;;2.02;67.04;99054.66;5068795;28;20703;-59
2024/01/30 07:49:04;;;;;;;10.03;5.80;;;;;;;2.00;67.69;99062.28;5067598;28;20751;-62
2024/01/30 07:51:32;;;;;;;11.13;7.00;;;;;;;1.83;67.42;99058.53;5068417;28;20193;-59
2024/01/30 07:53:59;;;;;;;9.07;5.50;;;;;;;1.74;66.34;99039.59;5066749;28;20185;-60
2024/01/30 07:56:27;;;;;;;10.27;7.13;;;;;;;1.80;66.77;99053.34;5068170;28;20209;-61
2024/01/30 07:58:54;;;;;;;11.07;5.43;;;;;;;1.88;66.71;99061.16;5067528;28;20205;-60
2024/01/30 08:01:21;;;;;;;11.17;5.87;;;;;;;1.95;67.27;99052.81;5067921;28;20293;-59
2024/01/30 08:03:48;;;;;;;12.73;6.30;;;;;;;1.97;66.13;99051.16;5068307;28;20806;-60
2024/01/30 08:06:20;;;;;;;12.43;5.80;;;;;;;1.94;65.54;99036.59;5066395;28;20196;-62
2024/01/30 08:08:47;;;;;;;8.00;4.73;;;;;;;1.80;66.15;99037.16;5068576;28;20346;-60
2024/01/30 08:11:14;;;;;;;9.67;5.00;;;;;;;1.74;65.43;99058.34;5067042;28;20200;-61
2024/01/30 08:13:41;;;;;;;9.77;5.50;;;;;;;1.70;65.92;99053.13;5068301;28;20201;-61
2024/01/30 08:16:15;;;;;;;14.20;7.07;;;;;;;1.85;67.46;99045.78;5066009;28;20284;-59
2024/01/30 08:18:42;;;;;;;10.93;5.67;;;;;;;1.88;66.27;99056.06;5068428;28;20207;-59
2024/01/30 08:21:09;;;;;;;12.03;6.53;;;;;;;1.90;67.31;99056.94;5067082;28;20203;-61
2024/01/30 08:23:44;;;;;;;12.20;6.80;;;;;;;1.97;67.13;99051.16;5067625;28;20236;-61
2024/01/30 08:26:12;;;;;;;9.93;6.10;;;;;;;2.11;66.38;99049.72;5049866;28;20606;-61
2024/01/30 08:28:41;;;;;;;13.13;7.67;;;;;;;2.19;65.74;99041.38;5065995;28;20343;-62
2024/01/30 08:31:12;;;;;;;8.30;5.07;;;;;;;2.20;65.44;99032.88;5068248;28;20280;-63
2024/01/30 08:33:39;;;;;;;11.30;5.40;;;;;;;1.76;65.26;98991.97;5066065;28;20312;-61
2024/01/30 08:36:08;;;;;;;10.77;6.00;;;;;;;2.18;66.46;99056.69;5067668;28;20756;-63
2024/01/30 08:38:35;;;;;;;10.90;5.63;;;;;;;2.19;65.32;99048.16;5066284;28;20200;-63
2024/01/30 08:41:03;;;;;;;8.23;5.47;;;;;;;2.00;65.66;99048.66;5049046;28;20193;-60
2024/01/30 08:43:30;;;;;;;9.90;5.33;;;;;;;2.02;64.63;99019.72;5066933;28;20727;-62
2024/01/30 08:46:01;;;;;;;7.37;3.87;;;;;;;2.07;62.82;99024.94;5047924;28;20215;-60
2024/01/30 08:48:28;;;;;;;8.47;4.43;;;;;;;2.24;62.36;99044.03;5066976;28;20564;-61
2024/01/30 08:50:55;;;;;;;8.63;4.27;;;;;;;2.32;62.56;99051.00;5065374;28;20316;-60
2024/01/30 08:53:22;;;;;;;7.83;4.63;;;;;;;2.22;62.78;99055.91;5067228;28;20201;-60
2024/01/30 08:55:49;;;;;;;10.20;5.00;;;;;;;2.32;64.58;99060.38;5047865;28;20199;-61
2024/01/30 08:58:19;;;;;;;9.17;5.27;;;;;;;2.30;64.59;99056.91;5067052;28;20192;-62
2024/01/30 09:00:46;;;;;;;10.20;6.73;;;;;;;2.52;64.41;99069.25;5067027;28;20211;-61
2024/01/30 09:03:14;;;;;;;9.57;6.13;;;;;;;2.45;64.64;99070.00;5064377;28;20206;-59
2024/01/30 09:05:41;;;;;;;10.10;5.90;;;;;;;2.34;64.38;99074.03;5066994;28;20216;-61
2024/01/30 09:08:08;;;;;;;8.07;5.17;;;;;;;2.26;64.50;99075.59;5065152;28;20208;-60
2024/01/30 09:10:35;;;;;;;10.67;5.90;;;;;;;2.10;64.84;99058.22;5066825;28;20216;-58
2024/01/30 09:13:03;;;;;;;7.47;5.43;;;;;;;2.17;64.73;99073.72;5064916;28;20193;-62
2024/01/30 09:15:30;;;;;;;7.53;4.30;;;;;;;2.02;63.36;99080.22;5066744;28;20227;-60
2024/01/30 09:18:00;;;;;;;7.40;4.07;;;;;;;1.95;64.04;99061.34;5066235;28;20295;-59
2024/01/30 09:20:28;;;;;;;6.83;4.80;;;;;;;1.99;65.52;99040.13;5065431;28;20200;-60
2024/01/30 09:22:58;;;;;;;8.53;5.00;;;;;;;2.12;64.35;99062.50;5066443;28;20609;-60
2024/01/30 09:26:05;;;;;;;7.90;5.17;;;;;;;1.93;64.74;99072.34;5064820;28;20201;-61
2024/01/30 09:28:42;;;;;;;9.20;5.27;;;;;;;1.79;65.64;99055.88;5086334;28;20299;-60
2024/01/30 09:31:52;;;;;;;8.23;4.97;;;;;;;2.02;64.69;99075.09;5086702;28;20196;-59
2024/01/30 09:35:12;;;;;;;7.27;4.50;;;;;;;2.14;63.83;99073.63;5084119;28;20684;-60
2024/01/30 09:38:33;;;;;;;6.77;4.63;;;;;;;2.20;64.16;99075.47;5066430;28;20593;-59
2024/01/30 09:41:54;;;;;;;5.93;4.13;;;;;;;2.10;64.77;99059.06;5086266;28;20254;-60
2024/01/30 09:45:15;;;;;;;10.20;5.27;;;;;;;2.15;64.76;99066.84;5067789;28;20664;-60
2024/01/30 09:48:35;;;;;;;9.03;5.37;;;;;;;2.00;64.78;99058.88;5083892;28;20207;-60
2024/01/30 09:51:56;;;;;;;10.57;5.80;;;;;;;2.03;64.56;99049.56;5083651;28;20192;-61
2024/01/30 09:55:17;;;;;;;14.00;7.40;;;;;;;2.11;66.61;99049.72;5084977;28;20267;-61
2024/01/30 09:58:39;;;;;;;8.87;5.40;;;;;;;2.16;64.64;99054.09;5084843;28;20675;-63
2024/01/30 10:02:00;;;;;;;10.37;6.30;;;;;;;1.87;65.59;99054.34;5084222;28;20196;-61
2024/01/30 10:05:21;;;;;;;8.73;4.90;;;;;;;1.97;65.10;99052.00;5083571;28;20188;-60
2024/01/30 10:08:41;;;;;;;9.80;5.07;;;;;;;2.14;64.61;99060.00;5084162;28;20632;-59
2024/01/30 10:12:03;;;;;;;6.87;4.10;;;;;;;2.07;63.08;99069.25;5084963;28;20311;-60
2024/01/30 10:15:10;;;;;;;6.77;4.63;;;;;;;1.62;63.45;99001.91;5085003;28;20291;-61
2024/01/30 10:17:38;;;;;;;7.93;4.57;;;;;;;2.06;64.12;99056.44;5046615;28;20245;-61
2024/01/30 10:20:19;;;;;;;7.20;4.40;;;;;;;1.93;64.40;99054.47;5064892;28;20766;-62
2024/01/30 10:23:00;;;;;;;34.27;15.73;;;;;;;1.95;65.06;99045.16;5064468;28;20207;-61
2024/01/30 10:25:41;;;;;;;9.43;6.10;;;;;;;1.82;65.59;99049.13;5073388;28;20648;-61
2024/01/30 10:28:49;;;;;;;12.17;7.67;;;;;;;1.94;66.13;99046.81;5079220;28;20201;-61
2024/01/30 10:31:47;;;;;;;10.33;6.93;;;;;;;1.97;65.08;99033.25;5074693;28;20617;-62
2024/01/30 10:34:14;;;;;;;11.27;5.20;;;;;;;2.01;64.70;99042.72;5073330;28;20680;-63
2024/01/30 10:36:54;;;;;;;7.57;4.90;;;;;;;1.92;64.14;99055.28;5047693;28;20287;-59
2024/01/30 10:39:30;;;;;;;8.57;5.40;;;;;;;1.86;64.93;99043.25;5063869;28;20190;-62
2024/01/30 10:42:04;;;;;;;9.80;5.67;;;;;;;1.99;64.83;99044.38;5065932;28;20220;-61
2024/01/30 10:44:43;;;;;;;18.27;7.90;;;;;;;2.05;65.23;99039.38;5064867;28;20258;-63
2024/01/30 10:47:15;;;;;;;9.87;5.77;;;;;;;2.04;63.91;99012.13;5046564;28;20197;-61
2024/01/30 10:49:42;;;;;;;11.10;6.70;;;;;;;2.14;64.11;99024.25;5065418;28;20228;-62
2024/01/30 10:52:10;;;;;;;7.87;5.87;;;;;;;2.10;64.77;99023.28;5063896;28;20283;-60
2024/01/30 10:54:40;;;;;;;12.07;5.67;;;;;;;2.04;65.71;99019.78;5065867;28;20265;-60
2024/01/30 10:57:10;;;;;;;9.70;5.53;;;;;;;1.94;65.42;99021.28;5063915;28;20258;-60
2024/01/30 10:59:38;;;;;;;8.13;5.33;;;;;;;1.79;65.76;99009.91;5065399;28;20201;-63
2024/01/30 11:02:05;;;;;;;9.67;5.80;;;;;;;1.85;65.89;99004.94;5065186;28;20729;-61
2024/01/30 11:04:41;;;;;;;8.73;4.70;;;;;;;1.70;67.11;99010.59;5064183;28;20287;-60
2024/01/30 11:07:20;;;;;;;8.50;5.03;;;;;;;1.61;66.45;99021.47;5066157;28;20196;-59
2024/01/30 11:09:51;;;;;;;7.60;4.87;;;;;;;1.75;66.40;99018.34;5066545;28;20248;-60
2024/01/30 11:12:26;;;;;;;10.90;5.97;;;;;;;1.79;66.98;99007.34;5073501;28;20212;-59
2024/01/30 11:15:04;;;;;;;12.07;5.87;;;;;;;1.80;65.94;99009.06;5070974;28;20206;-60
2024/01/30 11:17:49;;;;;;;8.77;6.13;;;;;;;1.78;66.07;98997.97;5080354;28;20280;-59
2024/01/30 11:20:22;;;;;;;9.30;6.10;;;;;;;1.88;65.49;98999.84;5088924;28;20317;-59
2024/01/30 11:22:55;;;;;;;15.97;7.97;;;;;;;1.91;65.09;98994.81;5087826;28;20189;-60
2024/01/30 11:25:24;;;;;;;8.30;4.83;;;;;;;1.57;66.02;98993.28;5069278;28;20608;-59
2024/01/30 11:28:34;;;;;;;14.33;8.43;;;;;;;1.72;65.59;98985.06;5067113;28;20696;-62
2024/01/30 11:31:55;;;;;;;7.03;4.10;;;;;;;1.73;63.82;98990.22;5053644;28;20347;-60
2024/01/30 11:35:16;;;;;;;6.20;3.90;;;;;;;1.89;64.60;98994.81;5067486;28;20197;-61
2024/01/30 11:38:36;;;;;;;7.47;5.00;;;;;;;1.74;64.92;98981.72;5068651;28;20710;-62
2024/01/30 11:41:57;;;;;;;6.23;4.67;;;;;;;1.88;63.96;98972.63;5068635;28;20197;-60
2024/01/30 11:45:18;;;;;;;9.17;5.00;;;;;;;1.94;64.53;98970.19;5064594;28;20548;-61
2024/01/30 11:48:39;;;;;;;5.50;3.70;;;;;;;1.73;64.73;98976.59;5048452;28;20267;-60
2024/01/30 11:52:02;;;;;;;8.53;5.70;;;;;;;1.90;65.25;98968.41;5048277;28;20202;-60
2024/01/30 11:54:43;;;;;;;8.93;5.77;;;;;;;1.88;65.83;98969.22;5048335;28;20349;-62
2024/01/30 11:57:10;;;;;;;8.27;5.37;;;;;;;1.90;66.17;98959.88;5046690;28;20713;-60
2024/01/30 11:59:37;;;;;;;10.77;6.67;;;;;;;1.80;66.28;98956.31;5048262;28;20687;-61
2024/01/30 12:02:04;;;;;;;7.63;4.90;;;;;;;1.73;66.59;98956.16;5056724;28;20653;-60
2024/01/30 12:04:32;;;;;;;6.43;4.30;;;;;;;1.75;66.78;98957.06;5067990;28;20193;-60
2024/01/30 12:06:59;;;;;;;13.10;6.10;;;;;;;1.92;66.50;98960.78;5067883;28;20189;-59
2024/01/30 12:09:30;;;;;;;8.10;5.10;;;;;;;1.82;65.82;98953.78;5066480;28;20331;-61
2024/01/30 12:11:57;;;;;;;9.00;5.13;;;;;;;1.88;65.27;98949.66;5068244;28;20680;-59
2024/01/30 12:14:25;;;;;;;8.07;5.43;;;;;;;1.71;66.31;98934.84;5066371;28;20586;-61
2024/01/30 12:16:52;;;;;;;8.87;5.67;;;;;;;1.95;66.28;98938.72;5068108;28;20197;-60
2024/01/30 12:19:26;;;;;;;10.77;6.30;;;;;;;2.13;65.67;98951.81;5065999;28;20208;-61
2024/01/30 12:21:58;;;;;;;9.43;6.30;;;;;;;2.22;65.97;98949.44;5059186;28;20292;-61
2024/01/30 12:24:32;;;;;;;11.07;6.53;;;;;;;2.47;65.50;98940.50;5080014;28;20231;-61
2024/01/30 12:27:00;;;;;;;11.87;6.87;;;;;;;2.60;64.76;98950.06;5086288;28;20200;-64
2024/01/30 12:29:33;;;;;;;9.97;5.97;;;;;;;2.57;62.87;98946.59;5088153;28;20230;-60
2024/01/30 12:32:05;;;;;;;12.30;7.27;;;;;;;2.48;64.22;98940.50;5086222;28;20200;-62
2024/01/30 12:34:32;;;;;;;10.73;6.37;;;;;;;2.34;63.72;98936.00;5087733;28;20193;-60
2024/01/30 12:37:19;;;;;;;7.43;5.10;;;;;;;2.34;64.12;98930.88;5087845;28;20204;-61
2024/01/30 12:39:46;;;;;;;9.53;5.50;;;;;;;2.29;63.90;98932.50;5086587;28;20290;-60